sensor_id;sensor_type;location;lat;lon;timestamp;pressure;altitude;pressure_sealevel;temperature;humidity
75629;BME280;64213;46.452;16.994;2023-02-15T00:02:13;101769.81;;;0.77;93.79
75629;BME280;64213;46.452;16.994;2023-02-15T00:05:16;101768.94;;;0.77;93.65
75629;BME280;64213;46.452;16.994;2023-02-15T00:08:18;101769.81;;;0.77;93.46
75629;BME280;64213;46.452;16.994;2023-02-15T00:11:20;101768.94;;;0.77;93.50
75629;BME280;64213;46.452;16.994;2023-02-15T00:14:42;101762.84;;;0.78;93.76
75629;BME280;64213;46.452;16.994;2023-02-15T00:17:44;101770.66;;;0.75;93.62
75629;BME280;64213;46.452;16.994;2023-02-15T00:20:46;101760.19;;;0.67;93.50
75629;BME280;64213;46.452;16.994;2023-02-15T00:23:49;101767.12;;;0.66;93.42
75629;BME280;64213;46.452;16.994;2023-02-15T00:26:51;101759.28;;;0.60;93.62
75629;BME280;64213;46.452;16.994;2023-02-15T00:29:54;101763.62;;;0.52;93.78
75629;BME280;64213;46.452;16.994;2023-02-15T00:32:56;101767.09;;;0.51;93.86
75629;BME280;64213;46.452;16.994;2023-02-15T00:36:00;101767.09;;;0.57;93.98
75629;BME280;64213;46.452;16.994;2023-02-15T00:39:03;101764.50;;;0.60;93.96
75629;BME280;64213;46.452;16.994;2023-02-15T00:42:06;101764.53;;;0.62;93.96
75629;BME280;64213;46.452;16.994;2023-02-15T00:45:09;101761.03;;;0.58;94.06
75629;BME280;64213;46.452;16.994;2023-02-15T00:48:11;101764.50;;;0.59;94.01
75629;BME280;64213;46.452;16.994;2023-02-15T00:51:14;101757.56;;;0.62;93.66
75629;BME280;64213;46.452;16.994;2023-02-15T00:54:16;101754.97;;;0.62;93.55
75629;BME280;64213;46.452;16.994;2023-02-15T00:57:18;101758.44;;;0.60;93.79
75629;BME280;64213;46.452;16.994;2023-02-15T01:00:21;101752.41;;;0.64;93.55
75629;BME280;64213;46.452;16.994;2023-02-15T01:03:23;101754.12;;;0.66;93.38
75629;BME280;64213;46.452;16.994;2023-02-15T01:06:26;101749.78;;;0.61;93.51
75629;BME280;64213;46.452;16.994;2023-02-15T01:09:29;101750.62;;;0.61;93.70
75629;BME280;64213;46.452;16.994;2023-02-15T01:12:31;101747.16;;;0.67;93.56
75629;BME280;64213;46.452;16.994;2023-02-15T01:15:35;101743.72;;;0.71;93.48
75629;BME280;64213;46.452;16.994;2023-02-15T01:18:37;101743.69;;;0.63;93.58
75629;BME280;64213;46.452;16.994;2023-02-15T01:21:40;101740.22;;;0.63;93.74
75629;BME280;64213;46.452;16.994;2023-02-15T01:24:43;101737.66;;;0.71;93.76
75629;BME280;64213;46.452;16.994;2023-02-15T01:27:46;101742.88;;;0.71;93.84
75629;BME280;64213;46.452;16.994;2023-02-15T01:30:48;101735.94;;;0.76;93.91
75629;BME280;64213;46.452;16.994;2023-02-15T01:33:51;101733.31;;;0.76;93.85
75629;BME280;64213;46.452;16.994;2023-02-15T01:36:53;101729.88;;;0.83;93.69
75629;BME280;64213;46.452;16.994;2023-02-15T01:39:55;101736.84;;;0.87;93.61
75629;BME280;64213;46.452;16.994;2023-02-15T01:42:58;101734.25;;;0.90;93.52
75629;BME280;64213;46.452;16.994;2023-02-15T01:46:00;101728.16;;;0.91;93.40
75629;BME280;64213;46.452;16.994;2023-02-15T01:49:15;101724.69;;;0.95;93.51
75629;BME280;64213;46.452;16.994;2023-02-15T01:52:19;101722.97;;;1.02;93.75
75629;BME280;64213;46.452;16.994;2023-02-15T01:55:24;101718.66;;;1.04;93.45
75629;BME280;64213;46.452;16.994;2023-02-15T01:58:28;101719.53;;;1.07;93.32
75629;BME280;64213;46.452;16.994;2023-02-15T02:01:31;101719.53;;;1.06;93.36
75629;BME280;64213;46.452;16.994;2023-02-15T02:04:40;101720.38;;;1.00;93.19
75629;BME280;64213;46.452;16.994;2023-02-15T02:07:44;101722.09;;;0.98;93.22
75629;BME280;64213;46.452;16.994;2023-02-15T02:10:47;101718.66;;;0.96;93.31
75629;BME280;64213;46.452;16.994;2023-02-15T02:13:51;101726.44;;;0.95;93.11
75629;BME280;64213;46.452;16.994;2023-02-15T02:20:27;101712.53;;;0.91;93.71
75629;BME280;64213;46.452;16.994;2023-02-15T02:37:18;101715.16;;;0.97;93.68
75629;BME280;64213;46.452;16.994;2023-02-15T02:43:51;101712.56;;;1.03;93.78
75629;BME280;64213;46.452;16.994;2023-02-15T02:50:08;101716.91;;;1.07;93.59
75629;BME280;64213;46.452;16.994;2023-02-15T02:56:59;101716.91;;;1.10;93.54
75629;BME280;64213;46.452;16.994;2023-02-15T03:00:06;101708.22;;;1.11;93.80
75629;BME280;64213;46.452;16.994;2023-02-15T03:03:13;101703.00;;;1.08;93.53
75629;BME280;64213;46.452;16.994;2023-02-15T03:06:34;101705.59;;;1.05;93.57
75629;BME280;64213;46.452;16.994;2023-02-15T03:09:41;101703.00;;;1.05;93.50
75629;BME280;64213;46.452;16.994;2023-02-15T03:12:45;101701.28;;;1.04;93.61
75629;BME280;64213;46.452;16.994;2023-02-15T03:15:49;101703.91;;;1.09;93.67
75629;BME280;64213;46.452;16.994;2023-02-15T03:19:19;101696.94;;;1.03;93.55
75629;BME280;64213;46.452;16.994;2023-02-15T03:22:33;101699.53;;;1.00;93.82
75629;BME280;64213;46.452;16.994;2023-02-15T03:25:40;101699.53;;;1.03;93.81
75629;BME280;64213;46.452;16.994;2023-02-15T03:28:45;101697.81;;;1.02;94.03
75629;BME280;64213;46.452;16.994;2023-02-15T03:31:53;101700.38;;;1.05;93.97
75629;BME280;64213;46.452;16.994;2023-02-15T03:34:58;101695.19;;;1.08;94.23
75629;BME280;64213;46.452;16.994;2023-02-15T03:38:02;101703.88;;;1.07;93.86
75629;BME280;64213;46.452;16.994;2023-02-15T03:41:07;101699.53;;;1.02;93.88
75629;BME280;64213;46.452;16.994;2023-02-15T03:44:29;101699.53;;;1.03;93.63
75629;BME280;64213;46.452;16.994;2023-02-15T03:47:36;101699.53;;;1.00;93.65
75629;BME280;64213;46.452;16.994;2023-02-15T03:50:40;101694.34;;;1.03;93.52
75629;BME280;64213;46.452;16.994;2023-02-15T03:54:12;101692.59;;;1.02;93.65
75629;BME280;64213;46.452;16.994;2023-02-15T03:57:17;101694.31;;;1.08;93.57
75629;BME280;64213;46.452;16.994;2023-02-15T04:00:46;101690.87;;;1.09;93.61
75629;BME280;64213;46.452;16.994;2023-02-15T04:04:22;101690.84;;;1.07;93.75
75629;BME280;64213;46.452;16.994;2023-02-15T04:07:26;101689.12;;;1.09;93.65
75629;BME280;64213;46.452;16.994;2023-02-15T04:10:28;101687.37;;;1.05;93.77
75629;BME280;64213;46.452;16.994;2023-02-15T04:13:49;101685.63;;;1.01;93.90
75629;BME280;64213;46.452;16.994;2023-02-15T04:16:58;101684.75;;;0.95;94.11
75629;BME280;64213;46.452;16.994;2023-02-15T04:20:00;101681.28;;;0.94;94.28
75629;BME280;64213;46.452;16.994;2023-02-15T04:23:22;101683.91;;;0.97;94.27
75629;BME280;64213;46.452;16.994;2023-02-15T04:26:44;101687.37;;;0.96;94.58
75629;BME280;64213;46.452;16.994;2023-02-15T04:29:46;101689.09;;;0.94;94.67
75629;BME280;64213;46.452;16.994;2023-02-15T04:32:53;101687.37;;;0.96;94.51
75629;BME280;64213;46.452;16.994;2023-02-15T04:35:55;101689.97;;;0.95;94.73
75629;BME280;64213;46.452;16.994;2023-02-15T04:38:58;101691.72;;;1.00;94.91
75629;BME280;64213;46.452;16.994;2023-02-15T04:42:01;101694.31;;;1.02;94.64
75629;BME280;64213;46.452;16.994;2023-02-15T04:45:03;101689.12;;;1.03;94.59
75629;BME280;64213;46.452;16.994;2023-02-15T04:48:06;101690.84;;;1.04;94.54
75629;BME280;64213;46.452;16.994;2023-02-15T04:51:08;101691.72;;;1.03;94.55
75629;BME280;64213;46.452;16.994;2023-02-15T04:54:11;101686.50;;;1.05;94.60
75629;BME280;64213;46.452;16.994;2023-02-15T04:57:14;101687.37;;;1.05;94.40
75629;BME280;64213;46.452;16.994;2023-02-15T05:00:17;101684.78;;;1.11;94.42
75629;BME280;64213;46.452;16.994;2023-02-15T05:03:19;101682.16;;;1.11;94.42
75629;BME280;64213;46.452;16.994;2023-02-15T05:06:22;101682.16;;;1.14;94.16
75629;BME280;64213;46.452;16.994;2023-02-15T05:09:24;101677.84;;;1.16;94.05
75629;BME280;64213;46.452;16.994;2023-02-15T05:12:27;101678.72;;;1.15;94.18
75629;BME280;64213;46.452;16.994;2023-02-15T05:15:29;101670.91;;;1.12;94.01
75629;BME280;64213;46.452;16.994;2023-02-15T05:18:32;101673.50;;;1.09;94.11
75629;BME280;64213;46.452;16.994;2023-02-15T05:21:34;101685.66;;;1.20;94.06
75629;BME280;64213;46.452;16.994;2023-02-15T05:24:37;101680.47;;;1.23;94.10
75629;BME280;64213;46.452;16.994;2023-02-15T05:27:57;101690.87;;;1.26;94.00
75629;BME280;64213;46.452;16.994;2023-02-15T05:31:19;101681.34;;;1.25;93.86
75629;BME280;64213;46.452;16.994;2023-02-15T05:34:22;101684.81;;;1.28;93.83
75629;BME280;64213;46.452;16.994;2023-02-15T05:37:25;101690.87;;;1.32;93.96
75629;BME280;64213;46.452;16.994;2023-02-15T05:40:27;101690.03;;;1.34;93.79
75629;BME280;64213;46.452;16.994;2023-02-15T05:43:30;101690.03;;;1.37;93.72
75629;BME280;64213;46.452;16.994;2023-02-15T05:46:33;101695.25;;;1.41;93.82
75629;BME280;64213;46.452;16.994;2023-02-15T05:49:35;101695.25;;;1.37;93.79
75629;BME280;64213;46.452;16.994;2023-02-15T05:52:38;101694.34;;;1.37;93.73
75629;BME280;64213;46.452;16.994;2023-02-15T05:55:41;101698.72;;;1.38;93.63
75629;BME280;64213;46.452;16.994;2023-02-15T05:58:43;101702.19;;;1.40;93.79
75629;BME280;64213;46.452;16.994;2023-02-15T06:01:45;101703.91;;;1.36;93.82
75629;BME280;64213;46.452;16.994;2023-02-15T06:04:48;101704.81;;;1.31;93.85
75629;BME280;64213;46.452;16.994;2023-02-15T06:07:50;101713.47;;;1.27;93.81
75629;BME280;64213;46.452;16.994;2023-02-15T06:10:52;101704.78;;;1.25;93.72
75629;BME280;64213;46.452;16.994;2023-02-15T06:13:55;101710.00;;;1.28;94.05
75629;BME280;64213;46.452;16.994;2023-02-15T06:16:57;101707.41;;;1.31;93.93
75629;BME280;64213;46.452;16.994;2023-02-15T06:19:59;101711.75;;;1.35;94.01
75629;BME280;64213;46.452;16.994;2023-02-15T06:23:02;101710.88;;;1.31;94.04
75629;BME280;64213;46.452;16.994;2023-02-15T06:26:04;101713.47;;;1.30;93.88
75629;BME280;64213;46.452;16.994;2023-02-15T06:29:06;101705.66;;;1.34;93.87
75629;BME280;64213;46.452;16.994;2023-02-15T06:32:09;101705.69;;;1.37;93.86
75629;BME280;64213;46.452;16.994;2023-02-15T06:35:12;101699.56;;;1.40;93.79
75629;BME280;64213;46.452;16.994;2023-02-15T06:38:14;101705.69;;;1.44;93.54
75629;BME280;64213;46.452;16.994;2023-02-15T06:41:16;101701.34;;;1.47;93.56
75629;BME280;64213;46.452;16.994;2023-02-15T06:44:19;101696.97;;;1.52;93.51
75629;BME280;64213;46.452;16.994;2023-02-15T06:47:21;101709.13;;;1.55;93.28
75629;BME280;64213;46.452;16.994;2023-02-15T06:50:24;101699.56;;;1.49;93.26
75629;BME280;64213;46.452;16.994;2023-02-15T06:53:26;101703.94;;;1.50;93.21
75629;BME280;64213;46.452;16.994;2023-02-15T06:56:29;101694.34;;;1.52;93.02
75629;BME280;64213;46.452;16.994;2023-02-15T06:59:32;101698.72;;;1.58;92.89
75629;BME280;64213;46.452;16.994;2023-02-15T07:02:34;101698.72;;;1.61;92.93
75629;BME280;64213;46.452;16.994;2023-02-15T07:05:37;101696.09;;;1.66;92.91
75629;BME280;64213;46.452;16.994;2023-02-15T07:08:39;101699.56;;;1.77;92.68
75629;BME280;64213;46.452;16.994;2023-02-15T07:11:41;101705.66;;;1.80;92.28
75629;BME280;64213;46.452;16.994;2023-02-15T07:15:02;101706.50;;;1.78;92.35
75629;BME280;64213;46.452;16.994;2023-02-15T07:18:08;101701.31;;;1.89;91.86
75629;BME280;64213;46.452;16.994;2023-02-15T07:21:11;101686.50;;;1.91;91.91
75629;BME280;64213;46.452;16.994;2023-02-15T07:24:13;101689.09;;;1.98;91.74
75629;BME280;64213;46.452;16.994;2023-02-15T07:27:16;101699.53;;;2.07;91.64
75629;BME280;64213;46.452;16.994;2023-02-15T07:30:18;101701.22;;;2.19;91.31
75629;BME280;64213;46.452;16.994;2023-02-15T07:33:21;101696.84;;;2.29;90.82
75629;BME280;64213;46.452;16.994;2023-02-15T07:36:26;101696.81;;;2.35;90.54
75629;BME280;64213;46.452;16.994;2023-02-15T07:39:28;101693.38;;;2.27;90.71
75629;BME280;64213;46.452;16.994;2023-02-15T07:42:31;101697.69;;;2.36;90.36
75629;BME280;64213;46.452;16.994;2023-02-15T07:45:33;101701.13;;;2.45;90.13
75629;BME280;64213;46.452;16.994;2023-02-15T07:48:36;101698.53;;;2.44;90.14
75629;BME280;64213;46.452;16.994;2023-02-15T07:51:38;101694.16;;;2.47;89.70
75629;BME280;64213;46.452;16.994;2023-02-15T07:54:42;101688.91;;;2.52;89.83
75629;BME280;64213;46.452;16.994;2023-02-15T07:57:46;101692.38;;;2.60;89.40
75629;BME280;64213;46.452;16.994;2023-02-15T08:00:49;101685.38;;;2.67;89.09
75629;BME280;64213;46.452;16.994;2023-02-15T08:04:04;101677.44;;;2.80;88.92
75629;BME280;64213;46.452;16.994;2023-02-15T08:07:07;101681.69;;;2.98;88.34
75629;BME280;64213;46.452;16.994;2023-02-15T08:10:10;101686.91;;;3.05;87.61
75629;BME280;64213;46.452;16.994;2023-02-15T08:13:32;101685.09;;;3.14;87.06
75629;BME280;64213;46.452;16.994;2023-02-15T08:19:42;101687.56;;;3.33;86.18
75629;BME280;64213;46.452;16.994;2023-02-15T08:22:45;101676.19;;;3.40;86.15
75629;BME280;64213;46.452;16.994;2023-02-15T08:25:47;101673.50;;;3.44;86.24
75629;BME280;64213;46.452;16.994;2023-02-15T08:28:51;101678.59;;;3.63;85.82
75629;BME280;64213;46.452;16.994;2023-02-15T08:31:56;101646.38;;;3.56;84.68
75629;BME280;64213;46.452;16.994;2023-02-15T08:35:00;101660.09;;;3.81;83.72
75629;BME280;64213;46.452;16.994;2023-02-15T08:38:03;101668.66;;;3.97;83.10
75629;BME280;64213;46.452;16.994;2023-02-15T08:41:10;101670.31;;;4.04;82.94
75629;BME280;64213;46.452;16.994;2023-02-15T08:44:14;101669.34;;;4.14;82.79
75629;BME280;64213;46.452;16.994;2023-02-15T08:47:17;101683.28;;;4.16;83.20
75629;BME280;64213;46.452;16.994;2023-02-15T08:50:19;101681.53;;;4.18;83.32
75629;BME280;64213;46.452;16.994;2023-02-15T08:53:22;101677.16;;;4.19;82.97
75629;BME280;64213;46.452;16.994;2023-02-15T08:56:27;101677.84;;;4.35;81.83
75629;BME280;64213;46.452;16.994;2023-02-15T08:59:31;101671.53;;;4.51;81.39
75629;BME280;64213;46.452;16.994;2023-02-15T09:02:33;101671.44;;;4.56;81.42
75629;BME280;64213;46.452;16.994;2023-02-15T09:05:36;101671.34;;;4.66;80.43
75629;BME280;64213;46.452;16.994;2023-02-15T09:08:38;101675.47;;;4.83;79.82
75629;BME280;64213;46.452;16.994;2023-02-15T09:11:43;101672.59;;;5.00;79.58
75629;BME280;64213;46.452;16.994;2023-02-15T09:14:46;101672.94;;;4.75;78.48
75629;BME280;64213;46.452;16.994;2023-02-15T09:17:48;101678.06;;;4.84;78.64
75629;BME280;64213;46.452;16.994;2023-02-15T09:20:50;101669.28;;;4.88;78.58
75629;BME280;64213;46.452;16.994;2023-02-15T09:23:58;101674.22;;;5.07;78.28
75629;BME280;64213;46.452;16.994;2023-02-15T09:27:01;101673.28;;;5.14;77.59
75629;BME280;64213;46.452;16.994;2023-02-15T09:30:04;101664.16;;;5.36;77.98
75629;BME280;64213;46.452;16.994;2023-02-15T09:33:06;101670.16;;;5.45;77.42
75629;BME280;64213;46.452;16.994;2023-02-15T09:36:33;101668.00;;;5.68;77.27
75629;BME280;64213;46.452;16.994;2023-02-15T09:39:37;101675.59;;;5.83;75.51
75629;BME280;64213;46.452;16.994;2023-02-15T09:46:20;101661.19;;;6.06;74.05
75629;BME280;64213;46.452;16.994;2023-02-15T09:56:34;101659.56;;;6.44;71.81
75629;BME280;64213;46.452;16.994;2023-02-15T10:00:12;101661.50;;;6.36;72.41
75629;BME280;64213;46.452;16.994;2023-02-15T10:03:30;101659.12;;;6.65;70.88
75629;BME280;64213;46.452;16.994;2023-02-15T10:10:17;101659.28;;;6.58;70.86
75629;BME280;64213;46.452;16.994;2023-02-15T10:13:48;101646.41;;;6.84;69.67
75629;BME280;64213;46.452;16.994;2023-02-15T10:20:52;101636.84;;;7.17;68.22
75629;BME280;64213;46.452;16.994;2023-02-15T10:24:36;101626.56;;;7.44;67.83
75629;BME280;64213;46.452;16.994;2023-02-15T10:27:47;101614.62;;;9.13;62.94
75629;BME280;64213;46.452;16.994;2023-02-15T10:31:04;101610.00;;;10.20;58.65
75629;BME280;64213;46.452;16.994;2023-02-15T10:41:12;101595.19;;;11.90;54.49
75629;BME280;64213;46.452;16.994;2023-02-15T10:50:57;101580.88;;;12.13;51.49
75629;BME280;64213;46.452;16.994;2023-02-15T11:07:38;101568.25;;;12.18;51.86
75629;BME280;64213;46.452;16.994;2023-02-15T11:10:54;101559.84;;;12.65;49.19
75629;BME280;64213;46.452;16.994;2023-02-15T11:14:05;101549.81;;;12.89;48.68
75629;BME280;64213;46.452;16.994;2023-02-15T11:17:15;101540.69;;;13.12;49.27
75629;BME280;64213;46.452;16.994;2023-02-15T11:20:27;101535.56;;;13.26;47.82
75629;BME280;64213;46.452;16.994;2023-02-15T11:23:33;101531.87;;;13.80;46.08
75629;BME280;64213;46.452;16.994;2023-02-15T11:26:42;101532.66;;;14.47;44.57
75629;BME280;64213;46.452;16.994;2023-02-15T11:29:59;101525.41;;;13.35;47.74
75629;BME280;64213;46.452;16.994;2023-02-15T11:33:04;101527.09;;;13.86;45.80
75629;BME280;64213;46.452;16.994;2023-02-15T11:36:13;101521.53;;;14.07;45.80
75629;BME280;64213;46.452;16.994;2023-02-15T11:39:20;101511.94;;;14.68;43.48
75629;BME280;64213;46.452;16.994;2023-02-15T11:42:25;101511.25;;;13.85;44.98
75629;BME280;64213;46.452;16.994;2023-02-15T11:45:32;101517.22;;;13.72;44.84
75629;BME280;64213;46.452;16.994;2023-02-15T11:48:36;101503.34;;;14.78;43.58
75629;BME280;64213;46.452;16.994;2023-02-15T11:51:39;101503.53;;;14.75;43.33
75629;BME280;64213;46.452;16.994;2023-02-15T11:54:47;101491.00;;;16.08;41.19
75629;BME280;64213;46.452;16.994;2023-02-15T11:57:56;101483.03;;;14.61;42.57
75629;BME280;64213;46.452;16.994;2023-02-15T12:04:36;101481.78;;;14.04;44.90
75629;BME280;64213;46.452;16.994;2023-02-15T12:14:08;101469.62;;;14.00;44.26
75629;BME280;64213;46.452;16.994;2023-02-15T12:17:13;101474.53;;;14.23;44.43
75629;BME280;64213;46.452;16.994;2023-02-15T12:23:26;101473.91;;;14.34;44.01
75629;BME280;64213;46.452;16.994;2023-02-15T12:26:34;101467.09;;;13.81;45.25
75629;BME280;64213;46.452;16.994;2023-02-15T12:29:42;101463.72;;;13.94;44.75
75629;BME280;64213;46.452;16.994;2023-02-15T12:32:56;101457.41;;;13.64;45.30
75629;BME280;64213;46.452;16.994;2023-02-15T12:42:16;101438.50;;;14.48;43.91
75629;BME280;64213;46.452;16.994;2023-02-15T12:45:24;101436.72;;;14.01;44.26
75629;BME280;64213;46.452;16.994;2023-02-15T12:48:27;101435.41;;;15.30;42.03
75629;BME280;64213;46.452;16.994;2023-02-15T12:51:30;101430.50;;;15.67;41.32
75629;BME280;64213;46.452;16.994;2023-02-15T12:54:42;101426.81;;;16.23;40.45
75629;BME280;64213;46.452;16.994;2023-02-15T12:57:45;101426.03;;;15.66;40.18
75629;BME280;64213;46.452;16.994;2023-02-15T13:01:09;101428.88;;;14.91;42.44
75629;BME280;64213;46.452;16.994;2023-02-15T13:04:24;101425.66;;;15.15;42.01
75629;BME280;64213;46.452;16.994;2023-02-15T13:07:30;101418.28;;;15.77;41.20
75629;BME280;64213;46.452;16.994;2023-02-15T13:10:39;101411.62;;;14.82;42.62
75629;BME280;64213;46.452;16.994;2023-02-15T13:13:59;101412.03;;;14.60;43.31
75629;BME280;64213;46.452;16.994;2023-02-15T13:17:04;101409.06;;;14.81;42.84
75629;BME280;64213;46.452;16.994;2023-02-15T13:20:18;101413.84;;;13.98;43.64
75629;BME280;64213;46.452;16.994;2023-02-15T13:26:28;101398.72;;;13.99;44.08
75629;BME280;64213;46.452;16.994;2023-02-15T13:29:37;101394.72;;;13.91;44.24
75629;BME280;64213;46.452;16.994;2023-02-15T13:32:41;101386.88;;;14.20;43.72
75629;BME280;64213;46.452;16.994;2023-02-15T13:35:59;101375.97;;;14.99;41.88
75629;BME280;64213;46.452;16.994;2023-02-15T13:39:27;101386.63;;;14.55;42.88
75629;BME280;64213;46.452;16.994;2023-02-15T13:42:49;101384.59;;;14.28;43.53
75629;BME280;64213;46.452;16.994;2023-02-15T13:49:37;101390.59;;;13.70;44.49
75629;BME280;64213;46.452;16.994;2023-02-15T13:52:58;101393.84;;;12.04;48.58
75629;BME280;64213;46.452;16.994;2023-02-15T14:06:55;101374.88;;;13.65;44.95
75629;BME280;64213;46.452;16.994;2023-02-15T14:10:31;101379.50;;;12.95;46.59
75629;BME280;64213;46.452;16.994;2023-02-15T14:21:02;101371.91;;;12.54;47.96
75629;BME280;64213;46.452;16.994;2023-02-15T14:30:54;101373.72;;;11.81;50.12
75629;BME280;64213;46.452;16.994;2023-02-15T14:33:57;101372.44;;;12.44;48.60
75629;BME280;64213;46.452;16.994;2023-02-15T14:37:00;101373.13;;;11.37;50.75
75629;BME280;64213;46.452;16.994;2023-02-15T14:50:47;101373.66;;;10.02;55.01
75629;BME280;64213;46.452;16.994;2023-02-15T14:53:50;101374.94;;;9.46;56.44
75629;BME280;64213;46.452;16.994;2023-02-15T15:00:29;101364.91;;;9.78;56.12
75629;BME280;64213;46.452;16.994;2023-02-15T15:03:33;101358.69;;;9.79;55.94
75629;BME280;64213;46.452;16.994;2023-02-15T15:06:40;101351.72;;;9.54;56.45
75629;BME280;64213;46.452;16.994;2023-02-15T15:09:43;101357.81;;;9.33;57.12
75629;BME280;64213;46.452;16.994;2023-02-15T15:12:51;101346.56;;;9.04;58.11
75629;BME280;64213;46.452;16.994;2023-02-15T15:15:55;101353.25;;;8.90;58.62
75629;BME280;64213;46.452;16.994;2023-02-15T15:18:58;101348.47;;;9.01;58.68
75629;BME280;64213;46.452;16.994;2023-02-15T15:22:04;101348.72;;;8.93;58.28
75629;BME280;64213;46.452;16.994;2023-02-15T15:31:51;101348.75;;;8.43;59.98
75629;BME280;64213;46.452;16.994;2023-02-15T15:35:12;101352.06;;;8.48;59.91
75629;BME280;64213;46.452;16.994;2023-02-15T15:42:06;101346.41;;;8.32;61.00
75629;BME280;64213;46.452;16.994;2023-02-15T15:45:25;101339.94;;;8.16;61.51
75629;BME280;64213;46.452;16.994;2023-02-15T15:48:35;101336.94;;;8.00;61.90
75629;BME280;64213;46.452;16.994;2023-02-15T15:51:41;101326.00;;;7.86;62.37
75629;BME280;64213;46.452;16.994;2023-02-15T15:54:46;101329.56;;;7.85;62.72
75629;BME280;64213;46.452;16.994;2023-02-15T15:57:53;101337.03;;;7.71;63.33
75629;BME280;64213;46.452;16.994;2023-02-15T16:01:08;101332.91;;;7.62;63.55
75629;BME280;64213;46.452;16.994;2023-02-15T16:04:26;101332.31;;;7.52;64.27
75629;BME280;64213;46.452;16.994;2023-02-15T16:07:31;101333.66;;;7.37;64.64
75629;BME280;64213;46.452;16.994;2023-02-15T16:10:35;101336.59;;;7.27;64.91
75629;BME280;64213;46.452;16.994;2023-02-15T16:13:41;101329.03;;;7.16;65.04
75629;BME280;64213;46.452;16.994;2023-02-15T16:16:49;101331.06;;;7.06;65.28
75629;BME280;64213;46.452;16.994;2023-02-15T16:20:11;101327.75;;;6.99;65.46
75629;BME280;64213;46.452;16.994;2023-02-15T16:26:59;101338.37;;;6.96;65.36
75629;BME280;64213;46.452;16.994;2023-02-15T16:30:22;101335.03;;;6.90;67.98
75629;BME280;64213;46.452;16.994;2023-02-15T16:33:35;101340.50;;;7.13;69.18
75629;BME280;64213;46.452;16.994;2023-02-15T16:36:40;101322.22;;;7.09;68.30
75629;BME280;64213;46.452;16.994;2023-02-15T16:39:44;101336.16;;;7.12;69.69
75629;BME280;64213;46.452;16.994;2023-02-15T16:42:52;101331.06;;;7.06;69.10
75629;BME280;64213;46.452;16.994;2023-02-15T16:46:06;101330.94;;;6.80;66.89
75629;BME280;64213;46.452;16.994;2023-02-15T16:49:23;101329.91;;;6.54;67.83
75629;BME280;64213;46.452;16.994;2023-02-15T16:52:29;101329.44;;;6.38;68.61
75629;BME280;64213;46.452;16.994;2023-02-15T16:55:42;101327.38;;;6.15;69.19
75629;BME280;64213;46.452;16.994;2023-02-15T16:58:47;101320.78;;;5.99;69.87
75629;BME280;64213;46.452;16.994;2023-02-15T17:01:53;101327.25;;;5.84;70.28
75629;BME280;64213;46.452;16.994;2023-02-15T17:05:07;101324.06;;;5.70;70.96
75629;BME280;64213;46.452;16.994;2023-02-15T17:11:42;101318.50;;;5.45;71.69
75629;BME280;64213;46.452;16.994;2023-02-15T17:14:45;101319.66;;;5.33;72.14
75629;BME280;64213;46.452;16.994;2023-02-15T17:17:49;101320.72;;;5.24;72.76
75629;BME280;64213;46.452;16.994;2023-02-15T17:20:57;101327.88;;;5.16;73.34
75629;BME280;64213;46.452;16.994;2023-02-15T17:24:03;101333.28;;;5.07;73.24
75629;BME280;64213;46.452;16.994;2023-02-15T17:27:28;101328.03;;;5.08;73.15
75629;BME280;64213;46.452;16.994;2023-02-15T17:30:36;101325.50;;;5.04;73.36
75629;BME280;64213;46.452;16.994;2023-02-15T17:33:41;101328.19;;;5.01;73.47
75629;BME280;64213;46.452;16.994;2023-02-15T17:36:58;101331.19;;;4.82;74.13
75629;BME280;64213;46.452;16.994;2023-02-15T17:40:24;101330.41;;;4.77;74.67
75629;BME280;64213;46.452;16.994;2023-02-15T17:43:29;101330.56;;;4.68;74.93
75629;BME280;64213;46.452;16.994;2023-02-15T17:46:36;101333.38;;;4.59;75.08
75629;BME280;64213;46.452;16.994;2023-02-15T17:49:44;101327.38;;;4.54;75.19
75629;BME280;64213;46.452;16.994;2023-02-15T17:52:53;101328.28;;;4.50;75.51
75629;BME280;64213;46.452;16.994;2023-02-15T17:55:59;101319.78;;;4.38;76.25
75629;BME280;64213;46.452;16.994;2023-02-15T17:59:04;101332.13;;;4.32;76.40
75629;BME280;64213;46.452;16.994;2023-02-15T18:02:14;101335.75;;;4.23;76.58
75629;BME280;64213;46.452;16.994;2023-02-15T18:05:37;101330.59;;;4.18;76.95
75629;BME280;64213;46.452;16.994;2023-02-15T18:09:02;101334.97;;;4.18;76.85
75629;BME280;64213;46.452;16.994;2023-02-15T18:12:34;101336.75;;;4.16;77.35
75629;BME280;64213;46.452;16.994;2023-02-15T18:15:42;101344.66;;;4.11;77.05
75629;BME280;64213;46.452;16.994;2023-02-15T18:18:46;101339.47;;;4.08;77.04
75629;BME280;64213;46.452;16.994;2023-02-15T18:21:51;101338.72;;;4.02;77.21
75629;BME280;64213;46.452;16.994;2023-02-15T18:24:58;101341.44;;;3.95;77.61
75629;BME280;64213;46.452;16.994;2023-02-15T18:28:04;101345.00;;;3.91;77.44
75629;BME280;64213;46.452;16.994;2023-02-15T18:31:09;101340.72;;;3.87;77.58
75629;BME280;64213;46.452;16.994;2023-02-15T18:34:21;101342.50;;;3.82;77.81
75629;BME280;64213;46.452;16.994;2023-02-15T18:37:31;101347.03;;;3.74;78.25
75629;BME280;64213;46.452;16.994;2023-02-15T18:40:35;101351.22;;;3.83;78.03
75629;BME280;64213;46.452;16.994;2023-02-15T18:43:40;101356.50;;;3.81;78.10
75629;BME280;64213;46.452;16.994;2023-02-15T18:46:44;101352.97;;;3.82;78.01
75629;BME280;64213;46.452;16.994;2023-02-15T18:49:47;101354.06;;;3.69;77.72
75629;BME280;64213;46.452;16.994;2023-02-15T18:52:53;101346.59;;;3.41;78.19
75629;BME280;64213;46.452;16.994;2023-02-15T18:55:58;101354.72;;;3.20;79.33